Time;durP1;ratioP1;P1;durP2;ratioP2;P2;SDS_P1;SDS_P2;PMS_P1;PMS_P2;Temp;Humidity;BMP_temperature;BMP_pressure;BME280_temperature;BME280_humidity;BME280_pressure;Samples;Min_cycle;Max_cycle;Signal;HPM_P1;HPM_P2
2023/10/11 00:02:17;;;;;;;13.15;5.35;;;;;;;16.66;69.53;101399.09;5063870;28;20027;-65
2023/10/11 00:04:42;;;;;;;10.30;5.22;;;;;;;16.65;69.16;101398.25;5066384;28;20028;-65
2023/10/11 00:07:08;;;;;;;11.68;5.28;;;;;;;16.61;69.05;101397.00;5066925;28;20029;-65
2023/10/11 00:09:38;;;;;;;9.75;5.10;;;;;;;16.58;69.09;101401.94;5066170;28;20028;-65
2023/10/11 00:12:04;;;;;;;11.93;5.00;;;;;;;16.57;68.98;101409.13;5065829;28;20111;-65
2023/10/11 00:14:39;;;;;;;10.25;5.05;;;;;;;16.52;69.18;101392.81;5065786;28;20126;-65
2023/10/11 00:17:05;;;;;;;11.85;5.43;;;;;;;16.52;69.03;101400.03;5059572;28;20191;-66
2023/10/11 00:19:33;;;;;;;12.95;5.00;;;;;;;16.50;69.07;101389.50;5063197;28;20021;-66
2023/10/11 00:21:59;;;;;;;11.13;5.28;;;;;;;16.49;69.12;101395.06;5059922;28;20469;-65
2023/10/11 00:24:24;;;;;;;15.15;5.18;;;;;;;16.47;68.91;101391.72;5058384;28;20067;-65
2023/10/11 00:26:50;;;;;;;16.60;5.25;;;;;;;16.42;69.02;101401.19;5057909;28;20395;-65
2023/10/11 00:29:16;;;;;;;13.20;5.13;;;;;;;16.39;69.20;101398.91;5059317;28;20074;-65
2023/10/11 00:31:41;;;;;;;8.35;4.80;;;;;;;16.36;69.09;101404.66;5066075;28;20513;-65
2023/10/11 00:34:10;;;;;;;9.90;4.95;;;;;;;16.34;69.15;101400.50;5059810;28;20103;-65
2023/10/11 00:36:36;;;;;;;17.08;5.10;;;;;;;16.30;69.24;101394.72;5063156;28;20036;-65
2023/10/11 00:39:01;;;;;;;11.23;4.85;;;;;;;16.26;69.14;101396.13;5055194;28;20032;-65
2023/10/11 00:41:30;;;;;;;12.68;5.25;;;;;;;16.19;69.54;101384.53;5063480;28;20025;-65
2023/10/11 00:43:56;;;;;;;10.00;4.90;;;;;;;16.16;69.52;101387.56;5065436;28;20020;-65
2023/10/11 00:46:27;;;;;;;10.95;4.88;;;;;;;16.17;69.48;101394.59;5064954;28;20028;-65
2023/10/11 00:48:54;;;;;;;11.77;5.00;;;;;;;16.16;69.63;101390.25;5066118;28;20061;-65
2023/10/11 00:51:23;;;;;;;11.25;5.55;;;;;;;16.11;69.93;101390.84;5065077;28;20121;-65
2023/10/11 00:53:50;;;;;;;9.80;5.30;;;;;;;16.10;69.95;101388.34;5066918;28;20143;-65
2023/10/11 00:56:16;;;;;;;11.15;5.35;;;;;;;16.05;70.12;101383.59;5060326;28;20012;-65
2023/10/11 00:58:43;;;;;;;10.00;5.18;;;;;;;16.05;70.17;101383.59;5054621;28;20090;-65
2023/10/11 01:01:08;;;;;;;10.02;5.18;;;;;;;16.05;70.24;101378.22;5055204;28;20028;-65
2023/10/11 01:03:37;;;;;;;13.30;5.47;;;;;;;16.01;70.16;101378.81;5059853;28;20058;-65
2023/10/11 01:06:04;;;;;;;9.18;5.00;;;;;;;16.03;70.53;101377.59;5063368;28;20496;-66
2023/10/11 01:08:38;;;;;;;11.70;5.60;;;;;;;16.00;70.24;101377.97;5058752;28;20025;-65
2023/10/11 01:11:05;;;;;;;10.85;5.10;;;;;;;15.97;70.77;101388.25;5064687;28;20033;-65
2023/10/11 01:13:30;;;;;;;9.68;5.55;;;;;;;15.95;70.86;101384.94;5068661;28;20024;-65
2023/10/11 01:15:56;;;;;;;8.65;4.88;;;;;;;15.92;70.98;101385.31;5060164;28;20512;-65
2023/10/11 01:18:21;;;;;;;12.88;5.35;;;;;;;15.86;71.12;101381.53;5061134;28;20109;-65
2023/10/11 01:20:46;;;;;;;10.20;4.90;;;;;;;15.84;71.27;101382.75;5063656;28;20709;-65
2023/10/11 01:23:11;;;;;;;11.52;5.57;;;;;;;15.80;71.50;101382.31;5065315;28;20058;-65
2023/10/11 01:25:37;;;;;;;13.60;5.68;;;;;;;15.77;71.53;101377.34;5062749;28;20792;-65
2023/10/11 01:28:02;;;;;;;12.63;5.50;;;;;;;15.75;71.56;101374.84;5059965;28;20036;-65
2023/10/11 01:30:27;;;;;;;12.55;5.47;;;;;;;15.72;71.91;101379.78;5062753;28;20025;-65
2023/10/11 01:32:57;;;;;;;11.43;5.88;;;;;;;15.69;72.23;101380.16;5062120;28;20040;-65
2023/10/11 01:35:22;;;;;;;;;;;;;;;15.71;72.13;101376.25;5062485;28;20016;-65
2023/10/11 01:37:48;;;;;;;10.60;5.07;;;;;;;15.66;72.24;101370.66;5056732;28;20389;-65
2023/10/11 01:40:26;;;;;;;10.20;5.93;;;;;;;15.63;72.40;101365.69;5061306;28;20020;-65
2023/10/11 01:42:52;;;;;;;11.63;5.50;;;;;;;15.61;72.79;101373.09;5058383;28;20056;-65
2023/10/11 01:45:20;;;;;;;11.25;5.65;;;;;;;15.62;72.91;101365.88;5059320;28;20091;-65
2023/10/11 01:47:46;;;;;;;12.38;5.75;;;;;;;15.59;73.27;101367.06;5058049;28;20063;-65
2023/10/11 01:50:15;;;;;;;10.45;5.53;;;;;;;15.57;73.44;101361.03;5060863;28;20052;-65
2023/10/11 01:52:42;;;;;;;12.05;5.63;;;;;;;15.56;73.53;101358.56;5067335;28;20421;-65
2023/10/11 01:55:11;;;;;;;10.20;6.10;;;;;;;15.52;73.89;101349.25;5063451;28;20632;-65
2023/10/11 01:57:39;;;;;;;14.13;6.57;;;;;;;15.48;73.83;101338.09;5053710;28;20500;-65
2023/10/11 02:00:13;;;;;;;13.95;6.20;;;;;;;15.48;74.24;101336.25;5058778;28;20066;-65
2023/10/11 02:02:47;;;;;;;12.10;5.65;;;;;;;15.48;73.96;101330.06;5062118;28;20067;-64
2023/10/11 02:05:15;;;;;;;8.93;5.82;;;;;;;15.47;74.23;101331.09;5064469;28;20061;-65
2023/10/11 02:07:41;;;;;;;9.57;6.00;;;;;;;15.49;74.47;101332.56;5059404;28;20441;-65
2023/10/11 02:10:11;;;;;;;10.55;5.53;;;;;;;15.49;74.21;101331.72;5061639;28;20036;-65
2023/10/11 02:12:37;;;;;;;12.35;6.18;;;;;;;15.48;74.53;101325.53;5057789;28;20036;-64
2023/10/11 02:15:07;;;;;;;12.10;6.05;;;;;;;15.45;74.64;101330.44;5068436;28;20028;-65
2023/10/11 02:17:37;;;;;;;15.43;5.93;;;;;;;15.43;74.63;101327.97;5064517;28;20023;-64
2023/10/11 02:20:05;;;;;;;12.55;6.03;;;;;;;15.39;74.94;101324.03;5061222;28;20028;-65
2023/10/11 02:22:32;;;;;;;13.45;6.07;;;;;;;15.36;75.09;101320.91;5062032;28;20044;-65
2023/10/11 02:24:59;;;;;;;10.55;6.18;;;;;;;15.30;75.31;101316.28;5064064;28;20031;-65
2023/10/11 02:27:25;;;;;;;11.75;6.35;;;;;;;15.24;75.49;101317.03;5060928;28;20038;-65
2023/10/11 02:29:51;;;;;;;10.80;6.30;;;;;;;15.22;75.93;101314.56;5058924;28;20017;-65
2023/10/11 02:32:16;;;;;;;10.70;6.25;;;;;;;15.19;75.92;101321.13;5058481;28;20074;-65
2023/10/11 02:34:43;;;;;;;14.45;6.43;;;;;;;15.16;76.27;101316.16;5056040;28;20592;-65
2023/10/11 02:37:11;;;;;;;15.77;7.00;;;;;;;15.12;76.63;101317.56;5057005;28;20541;-65
2023/10/11 02:39:42;;;;;;;11.02;5.85;;;;;;;15.08;76.46;101313.59;5057404;28;20032;-65
2023/10/11 02:42:08;;;;;;;13.43;6.50;;;;;;;15.06;76.93;101312.13;5062602;28;20036;-65
2023/10/11 02:44:39;;;;;;;10.73;6.47;;;;;;;15.04;77.18;101312.31;5059254;28;20054;-65
2023/10/11 02:47:06;;;;;;;11.93;6.50;;;;;;;15.04;77.31;101315.00;5057628;28;20048;-65
2023/10/11 02:49:32;;;;;;;12.88;6.85;;;;;;;15.02;77.65;101318.84;5064021;28;20055;-65
2023/10/11 02:51:57;;;;;;;14.27;6.53;;;;;;;15.01;77.70;101318.03;5066620;28;20033;-65
2023/10/11 02:54:34;;;;;;;14.55;6.88;;;;;;;14.97;77.81;101321.25;5052722;28;20021;-65
2023/10/11 02:57:01;;;;;;;11.27;6.70;;;;;;;14.94;77.90;101316.28;5061918;28;20454;-65
2023/10/11 02:59:26;;;;;;;11.65;6.47;;;;;;;14.92;78.23;101312.97;5064813;28;20716;-65
2023/10/11 03:01:59;;;;;;;11.80;6.75;;;;;;;14.87;78.34;101302.84;5068930;28;20025;-65
2023/10/11 03:04:41;;;;;;;15.48;6.82;;;;;;;14.86;78.68;101304.69;5067180;28;20111;-65
2023/10/11 03:07:12;;;;;;;14.43;6.72;;;;;;;14.84;78.85;101308.56;5061373;28;20025;-65
2023/10/11 03:09:38;;;;;;;12.50;7.22;;;;;;;14.83;79.00;101298.88;5061537;28;20033;-65
2023/10/11 03:12:18;;;;;;;11.60;6.97;;;;;;;14.83;79.21;101304.25;5062903;28;20089;-65
2023/10/11 03:14:47;;;;;;;13.52;6.28;;;;;;;14.82;79.38;101300.75;5067059;28;20033;-65
2023/10/11 03:17:16;;;;;;;11.63;6.70;;;;;;;14.81;79.18;101284.88;5066358;28;20020;-65
2023/10/11 03:19:45;;;;;;;12.05;7.05;;;;;;;14.79;79.66;101290.41;5066867;28;20036;-64
2023/10/11 03:22:20;;;;;;;13.13;7.45;;;;;;;14.73;79.68;101283.13;5063717;28;20045;-65
2023/10/11 03:24:53;;;;;;;18.13;7.28;;;;;;;14.73;79.88;101298.34;5063585;28;20025;-65
2023/10/11 03:27:20;;;;;;;14.80;6.82;;;;;;;14.71;80.00;101303.03;5066490;28;20103;-65
2023/10/11 03:29:46;;;;;;;10.85;6.85;;;;;;;14.66;80.20;101303.59;5065146;28;20490;-65
2023/10/11 03:32:11;;;;;;;13.02;7.32;;;;;;;14.63;80.59;101292.47;5062119;28;20100;-65
2023/10/11 03:34:36;;;;;;;13.35;7.07;;;;;;;14.61;80.78;101305.19;5063098;28;20078;-65
2023/10/11 03:37:10;;;;;;;11.95;7.25;;;;;;;14.55;80.74;101301.41;5068657;28;20063;-65
2023/10/11 03:42:14;;;;;;;11.73;6.85;;;;;;;14.43;81.32;101295.69;5050743;28;20059;-65
2023/10/11 03:44:40;;;;;;;15.50;7.63;;;;;;;14.40;81.69;101285.34;5062616;28;20401;-65
2023/10/11 03:47:08;;;;;;;16.17;7.25;;;;;;;14.44;81.72;101285.81;5066653;28;20478;-65
2023/10/11 03:52:19;;;;;;;13.35;7.03;;;;;;;14.44;81.98;101286.66;5063904;28;20552;-65
2023/10/11 03:54:53;;;;;;;18.20;7.68;;;;;;;14.46;82.49;101286.50;5061805;28;20029;-65
2023/10/11 03:57:18;;;;;;;16.38;8.02;;;;;;;14.47;82.38;101283.63;5068033;28;20116;-65
2023/10/11 03:59:48;;;;;;;14.45;7.47;;;;;;;14.47;82.33;101277.47;5068566;28;20028;-65
2023/10/11 04:02:17;;;;;;;15.80;7.53;;;;;;;14.46;82.31;101283.81;5063233;28;20029;-65
2023/10/11 04:04:43;;;;;;;;;;;;;;;14.50;82.36;101280.59;5059658;28;20037;-65
2023/10/11 04:07:13;;;;;;;13.07;7.25;;;;;;;14.48;82.27;101271.94;5068900;28;20330;-64
2023/10/11 04:09:39;;;;;;;15.23;7.50;;;;;;;14.44;82.63;101257.25;5063644;28;20043;-65
2023/10/11 04:12:05;;;;;;;16.42;7.93;;;;;;;14.47;82.63;101270.28;5067364;28;20036;-65
2023/10/11 04:14:39;;;;;;;16.58;8.30;;;;;;;14.44;82.79;101261.78;5061303;28;20039;-65
2023/10/11 04:17:15;;;;;;;17.27;8.25;;;;;;;14.43;83.23;101260.13;5068745;28;20452;-65
2023/10/11 04:19:42;;;;;;;15.43;7.82;;;;;;;14.45;83.43;101263.44;5063384;28;20502;-65
2023/10/11 04:22:16;;;;;;;14.20;7.85;;;;;;;14.45;83.13;101255.41;5062996;28;20676;-65
2023/10/11 04:24:43;;;;;;;16.70;8.52;;;;;;;14.44;83.59;101251.91;5063879;28;20039;-65
2023/10/11 04:29:47;;;;;;;15.27;8.25;;;;;;;14.44;83.77;101251.09;5064882;28;20034;-65
2023/10/11 04:32:19;;;;;;;19.67;8.25;;;;;;;14.45;83.80;101252.75;5064356;28;20039;-65
2023/10/11 04:34:48;;;;;;;16.85;8.95;;;;;;;14.42;84.09;101247.75;5066729;28;20054;-65
2023/10/11 04:37:19;;;;;;;14.68;8.45;;;;;;;14.40;84.30;101245.25;5066638;28;20032;-65
2023/10/11 04:39:51;;;;;;;13.52;8.07;;;;;;;14.40;84.33;101244.44;5060557;28;20029;-65
2023/10/11 04:42:19;;;;;;;17.90;9.18;;;;;;;14.38;84.42;101252.63;5057361;28;20024;-65
2023/10/11 04:44:54;;;;;;;15.57;8.90;;;;;;;14.35;84.54;101244.16;5062258;28;20078;-65
2023/10/11 04:47:21;;;;;;;13.35;8.55;;;;;;;14.34;85.05;101261.19;5064287;28;20575;-65
2023/10/11 04:49:48;;;;;;;16.13;8.55;;;;;;;14.34;85.13;101271.88;5066309;28;20514;-65
2023/10/11 04:52:22;;;;;;;16.92;8.55;;;;;;;14.34;85.22;101263.88;5061747;28;20024;-65
2023/10/11 04:54:54;;;;;;;17.92;9.05;;;;;;;14.33;85.15;101271.06;5065738;28;20035;-65
2023/10/11 04:57:35;;;;;;;17.58;8.90;;;;;;;14.31;85.62;101273.09;5055721;28;20392;-65
2023/10/11 05:00:00;;;;;;;12.80;8.45;;;;;;;14.32;85.84;101276.59;5066859;28;20481;-65
2023/10/11 05:02:32;;;;;;;16.42;9.18;;;;;;;14.32;85.94;101272.06;5066089;28;20074;-65
2023/10/11 05:04:59;;;;;;;15.52;9.27;;;;;;;14.34;85.98;101277.22;5064030;28;20031;-65
2023/10/11 05:07:25;;;;;;;15.93;9.43;;;;;;;14.33;85.95;101273.72;5063103;28;20739;-65
2023/10/11 05:09:56;;;;;;;18.13;9.50;;;;;;;14.30;85.88;101275.94;5058061;28;20055;-65
2023/10/11 05:12:22;;;;;;;17.25;8.95;;;;;;;14.31;86.28;101273.09;5059891;28;20109;-65
2023/10/11 05:17:31;;;;;;;17.38;9.20;;;;;;;14.35;86.35;101277.03;5066995;28;20033;-65
2023/10/11 05:20:20;;;;;;;16.15;9.25;;;;;;;14.34;86.40;101282.56;5063874;28;20020;-65
2023/10/11 05:25:16;;;;;;;15.23;9.60;;;;;;;14.32;86.39;101288.09;5069007;28;20041;-65
2023/10/11 05:27:57;;;;;;;16.75;8.57;;;;;;;14.32;86.86;101293.44;5054019;28;20029;-65
2023/10/11 05:52:07;;;;;;;15.80;9.43;;;;;;;14.25;87.74;101303.22;5067574;28;20086;-65
2023/10/11 05:54:36;;;;;;;21.05;9.60;;;;;;;14.24;88.17;101307.72;5059382;28;20028;-65
2023/10/11 05:57:04;;;;;;;15.27;9.82;;;;;;;14.24;88.26;101305.06;5062423;28;20028;-65
2023/10/11 05:59:37;;;;;;;18.42;10.27;;;;;;;14.23;88.56;101300.72;5066389;28;20097;-65
2023/10/11 06:02:07;;;;;;;17.67;10.15;;;;;;;14.22;88.63;101298.25;5061553;28;20033;-65
2023/10/11 06:04:39;;;;;;;16.67;9.75;;;;;;;14.23;88.62;101287.38;5061501;28;20025;-65
2023/10/11 06:07:05;;;;;;;22.05;10.52;;;;;;;14.24;88.99;101298.88;5064692;28;20028;-65
2023/10/11 06:09:38;;;;;;;18.55;10.20;;;;;;;14.20;89.44;101278.91;5066299;28;20032;-65
2023/10/11 06:12:09;;;;;;;16.83;10.38;;;;;;;14.20;89.25;101286.91;5058715;28;20465;-65
2023/10/11 06:14:36;;;;;;;15.40;10.32;;;;;;;14.25;89.55;101287.19;5059378;28;20033;-65
2023/10/11 06:17:05;;;;;;;19.02;10.55;;;;;;;14.29;89.47;101291.16;5065562;28;20055;-65
2023/10/11 06:19:31;;;;;;;;;;;;;;;14.35;89.59;101285.06;5061926;28;20103;-65
2023/10/11 06:21:57;;;;;;;17.60;10.60;;;;;;;14.34;89.72;101282.56;5056118;28;20006;-65
2023/10/11 06:24:30;;;;;;;18.33;10.63;;;;;;;14.34;90.17;101288.75;5047866;28;20032;-65
2023/10/11 06:26:56;;;;;;;16.23;10.65;;;;;;;14.35;90.13;101279.72;5048812;28;20020;-65
2023/10/11 06:29:23;;;;;;;18.65;11.25;;;;;;;14.37;90.63;101280.38;5051251;28;20434;-65
2023/10/11 06:31:49;;;;;;;18.77;10.63;;;;;;;14.40;90.63;101277.31;5048486;28;20499;-65
2023/10/11 06:34:34;;;;;;;19.48;10.60;;;;;;;14.43;90.63;101289.50;5061562;28;20197;-65
2023/10/11 06:37:00;;;;;;;19.77;10.90;;;;;;;14.44;90.68;101283.97;5056830;28;20390;-65
2023/10/11 06:44:57;;;;;;;18.20;10.50;;;;;;;14.60;90.97;101291.00;5058735;28;20050;-65
2023/10/11 06:47:24;;;;;;;18.35;11.27;;;;;;;14.65;90.82;101293.09;5062333;28;20082;-65
2023/10/11 06:49:54;;;;;;;22.23;10.77;;;;;;;14.65;90.94;101295.78;5056847;28;20112;-65
2023/10/11 06:52:26;;;;;;;20.35;11.10;;;;;;;14.71;90.65;101295.84;5061982;28;20020;-65
2023/10/11 06:57:45;;;;;;;17.98;11.27;;;;;;;14.77;90.76;101294.28;5060064;28;20124;-65
2023/10/11 07:00:20;;;;;;;18.15;10.85;;;;;;;14.80;90.85;101301.94;5063840;28;20035;-65
2023/10/11 07:03:26;;;;;;;20.30;11.43;;;;;;;14.82;91.08;101315.94;5065433;28;20024;-65
2023/10/11 07:05:56;;;;;;;22.35;11.25;;;;;;;14.86;91.06;101320.75;5062017;28;20082;-64
2023/10/11 07:08:31;;;;;;;19.23;11.15;;;;;;;14.85;90.99;101313.72;5064755;28;20028;-65
2023/10/11 07:11:16;;;;;;;19.45;11.45;;;;;;;14.92;91.27;101334.38;5063047;28;20123;-65
2023/10/11 07:14:00;;;;;;;22.70;11.45;;;;;;;14.98;91.48;101339.78;5057765;28;20037;-65
2023/10/11 07:16:27;;;;;;;20.58;11.38;;;;;;;15.03;91.51;101348.06;5059803;28;20032;-65
2023/10/11 07:18:54;;;;;;;18.95;10.98;;;;;;;15.09;91.55;101350.03;5054977;28;20025;-65
2023/10/11 07:21:25;;;;;;;23.23;12.35;;;;;;;15.13;91.52;101351.31;5058797;28;20124;-65
2023/10/11 07:29:05;;;;;;;19.27;11.55;;;;;;;15.34;91.57;101352.38;5062934;28;20037;-65
2023/10/11 07:31:37;;;;;;;20.25;11.77;;;;;;;15.42;91.27;101354.94;5058271;28;20017;-65
2023/10/11 07:34:09;;;;;;;18.17;11.93;;;;;;;15.46;91.16;101337.47;5055879;28;20099;-65
2023/10/11 07:36:37;;;;;;;23.13;11.63;;;;;;;15.50;90.78;101338.72;5065490;28;20036;-65
2023/10/11 07:39:03;;;;;;;19.50;12.30;;;;;;;15.55;90.57;101330.97;5054288;28;20028;-65
2023/10/11 07:41:29;;;;;;;20.83;11.25;;;;;;;15.61;90.41;101324.91;5059698;28;20625;-65
2023/10/11 07:43:58;;;;;;;21.65;12.30;;;;;;;15.66;90.43;101329.66;5062461;28;20025;-65
2023/10/11 07:46:24;;;;;;;20.70;11.85;;;;;;;15.73;90.43;101328.69;5065745;28;20056;-65
2023/10/11 07:48:57;;;;;;;22.70;11.77;;;;;;;15.77;90.02;101339.84;5060374;28;20111;-65
2023/10/11 07:51:25;;;;;;;21.17;12.30;;;;;;;15.82;89.80;101337.41;5060649;28;20082;-65
2023/10/11 07:53:51;;;;;;;20.38;11.57;;;;;;;15.84;89.41;101342.59;5066717;28;20017;-65
2023/10/11 07:56:16;;;;;;;20.23;11.70;;;;;;;15.90;89.59;101345.34;5058144;28;20031;-65
2023/10/11 07:58:45;;;;;;;22.08;11.68;;;;;;;15.94;89.65;101343.94;5066520;28;20024;-65
2023/10/11 08:01:30;;;;;;;19.50;12.43;;;;;;;16.00;89.84;101337.78;5061307;28;20029;-65
2023/10/11 08:03:59;;;;;;;23.35;11.38;;;;;;;16.02;89.63;101341.09;5060599;28;20477;-65
2023/10/11 08:06:24;;;;;;;21.10;12.18;;;;;;;15.99;89.40;101343.34;5060900;28;20040;-65
2023/10/11 08:08:59;;;;;;;21.70;12.88;;;;;;;15.93;89.56;101350.31;5061823;28;20036;-65
2023/10/11 08:11:28;;;;;;;22.98;11.57;;;;;;;15.93;89.56;101338.75;5065518;28;20512;-65
2023/10/11 08:14:00;;;;;;;19.35;11.82;;;;;;;15.91;89.49;101338.13;5064489;28;20017;-65
2023/10/11 08:16:26;;;;;;;19.02;11.57;;;;;;;15.90;89.71;101339.13;5064847;28;20112;-65
2023/10/11 08:18:52;;;;;;;19.73;11.68;;;;;;;15.91;90.16;101357.72;5060943;28;20683;-65
2023/10/11 08:21:17;;;;;;;23.77;12.50;;;;;;;15.93;90.00;101349.47;5056308;28;20434;-65
2023/10/11 08:23:43;;;;;;;22.92;12.77;;;;;;;16.00;90.55;101359.22;5059540;28;20031;-65
2023/10/11 08:26:14;;;;;;;24.80;12.82;;;;;;;16.05;90.64;101353.28;5051204;28;20068;-65
2023/10/11 08:28:48;;;;;;;20.95;12.57;;;;;;;16.13;90.63;101368.38;5063974;28;20115;-65
2023/10/11 08:31:35;;;;;;;21.40;13.18;;;;;;;16.17;90.63;101361.59;5060442;28;20034;-65
2023/10/11 08:34:01;;;;;;;18.77;12.60;;;;;;;16.24;90.18;101363.34;5058382;28;20553;-65
2023/10/11 08:36:29;;;;;;;25.55;13.30;;;;;;;16.30;90.47;101361.72;5068047;28;20021;-65
2023/10/11 08:38:56;;;;;;;22.55;12.85;;;;;;;16.41;90.61;101364.69;5060110;28;20064;-65
2023/10/11 08:41:22;;;;;;;23.90;13.13;;;;;;;16.46;90.41;101371.28;5060475;28;20047;-65
2023/10/11 08:43:49;;;;;;;24.02;13.40;;;;;;;16.51;90.42;101382.28;5063650;28;20056;-65
2023/10/11 08:46:17;;;;;;;19.58;12.65;;;;;;;16.50;90.09;101394.03;5060244;28;20560;-65
2023/10/11 08:48:43;;;;;;;25.92;13.10;;;;;;;16.45;89.94;101380.38;5066025;28;20086;-65
2023/10/11 08:51:12;;;;;;;26.63;13.75;;;;;;;16.37;89.94;101362.59;5062025;28;20017;-65
2023/10/11 08:53:47;;;;;;;21.02;13.80;;;;;;;16.33;90.22;101383.59;5054485;28;20031;-65
2023/10/11 08:56:15;;;;;;;24.38;14.70;;;;;;;16.27;90.51;101395.09;5058534;28;20063;-65
2023/10/11 08:58:41;;;;;;;24.73;14.63;;;;;;;16.21;90.82;101390.53;5060448;28;20624;-65
2023/10/11 09:01:07;;;;;;;28.00;16.58;;;;;;;16.24;90.94;101400.84;5069297;28;20086;-65
2023/10/11 09:03:40;;;;;;;28.98;15.95;;;;;;;16.23;91.27;101388.47;5067937;28;20028;-65
2023/10/11 09:06:18;;;;;;;28.02;16.90;;;;;;;16.21;91.65;101393.22;5066724;28;20033;-65
2023/10/11 09:08:47;;;;;;;25.88;16.52;;;;;;;16.22;92.00;101394.88;5056912;28;20086;-65
2023/10/11 09:11:28;;;;;;;29.60;17.15;;;;;;;16.21;92.06;101385.16;5059868;28;20029;-65
2023/10/11 09:14:09;;;;;;;34.80;19.08;;;;;;;16.23;92.33;101385.78;5061141;28;20028;-66
2023/10/11 09:16:34;;;;;;;28.70;17.98;;;;;;;16.27;92.78;101391.59;5066054;28;20020;-65
2023/10/11 09:19:10;;;;;;;38.42;20.42;;;;;;;16.30;93.09;101378.63;5053746;28;20037;-65
2023/10/11 09:21:36;;;;;;;31.33;19.63;;;;;;;16.28;93.03;101382.53;5057783;28;20576;-65
2023/10/11 09:24:03;;;;;;;37.53;20.00;;;;;;;16.35;93.33;101386.09;5068600;28;20051;-66
2023/10/11 09:26:34;;;;;;;33.38;20.48;;;;;;;16.37;93.90;101386.72;5066108;28;20021;-65
2023/10/11 09:29:02;;;;;;;31.55;21.02;;;;;;;16.39;93.65;101390.03;5065710;28;20062;-65
2023/10/11 09:31:31;;;;;;;33.42;22.17;;;;;;;16.37;94.19;101387.53;5061830;28;20046;-65
2023/10/11 09:34:00;;;;;;;;;;;;;;;16.41;94.19;101396.84;5060746;28;20020;-65
2023/10/11 09:36:28;;;;;;;39.03;21.55;;;;;;;16.38;94.06;101410.63;5061324;28;19962;-65
2023/10/11 09:38:54;;;;;;;35.13;22.15;;;;;;;16.36;94.64;101387.75;5056435;28;20028;-66
2023/10/11 09:41:28;;;;;;;40.97;23.60;;;;;;;16.39;95.01;101381.97;5061568;28;20052;-65
2023/10/11 09:43:57;;;;;;;35.65;23.25;;;;;;;16.42;95.13;101381.59;5061754;28;20033;-65
2023/10/11 09:46:31;;;;;;;37.72;23.55;;;;;;;16.42;95.59;101403.88;5063543;28;20111;-65
2023/10/11 09:48:59;;;;;;;36.53;24.50;;;;;;;16.43;95.65;101389.44;5055822;28;20031;-65
2023/10/11 09:51:26;;;;;;;39.90;23.85;;;;;;;16.43;95.92;101389.44;5064319;28;20056;-66
2023/10/11 09:53:53;;;;;;;37.72;24.08;;;;;;;16.47;96.26;101389.03;5060098;28;20082;-65
2023/10/11 09:56:41;;;;;;;36.40;23.80;;;;;;;16.51;96.38;101393.84;5064565;28;20031;-65
2023/10/11 09:59:28;;;;;;;39.87;24.57;;;;;;;16.51;96.82;101393.00;5066679;28;20085;-66
2023/10/11 10:02:07;;;;;;;38.55;24.35;;;;;;;16.52;96.64;101408.91;5063204;28;20278;-65
2023/10/11 10:05:04;;;;;;;39.05;23.65;;;;;;;16.55;96.95;101388.91;5061581;28;20074;-66
2023/10/11 10:07:42;;;;;;;42.85;24.48;;;;;;;16.54;97.04;101389.94;5064563;28;20089;-66
2023/10/11 10:10:11;;;;;;;37.42;25.33;;;;;;;16.54;96.93;101385.41;5062649;28;20521;-65
2023/10/11 10:12:41;;;;;;;39.75;24.75;;;;;;;16.57;97.44;101405.63;5067077;28;20025;-65
2023/10/11 10:15:14;;;;;;;;;;;;;;;16.58;97.51;101401.94;5058699;28;20746;-65
2023/10/11 10:18:00;;;;;;;39.17;24.92;;;;;;;16.59;97.61;101393.69;5066215;28;19915;-65
2023/10/11 10:20:43;;;;;;;37.50;24.02;;;;;;;16.60;97.94;101389.16;5059419;28;20028;-65
2023/10/11 10:23:14;;;;;;;39.92;24.33;;;;;;;16.63;97.76;101399.47;5057100;28;20024;-65
2023/10/11 10:25:46;;;;;;;38.78;24.52;;;;;;;16.62;98.06;101398.66;5053782;28;20029;-65
2023/10/11 10:28:49;;;;;;;39.20;24.27;;;;;;;16.69;97.79;101404.91;5061109;28;20475;-65
2023/10/11 10:31:21;;;;;;;37.83;24.13;;;;;;;16.69;98.16;101393.34;5060708;28;20163;-65
2023/10/11 10:33:51;;;;;;;41.85;24.63;;;;;;;16.73;98.36;101399.97;5065400;28;20397;-65
2023/10/11 10:36:28;;;;;;;38.28;23.92;;;;;;;16.73;98.16;101408.84;5062912;28;20070;-65
2023/10/11 10:39:00;;;;;;;35.92;23.50;;;;;;;16.78;98.59;101410.13;5059968;28;20028;-65
2023/10/11 10:41:30;;;;;;;33.88;22.15;;;;;;;16.78;98.48;101392.19;5060696;28;20035;-66
2023/10/11 10:44:10;;;;;;;36.60;22.60;;;;;;;16.81;98.17;101409.75;5056823;28;20040;-65
2023/10/11 10:46:37;;;;;;;36.03;21.58;;;;;;;16.84;98.53;101401.28;5059607;28;20028;-65
2023/10/11 10:49:03;;;;;;;32.55;21.63;;;;;;;16.85;98.45;101394.91;5060606;28;20024;-65
2023/10/11 10:51:35;;;;;;;34.17;22.27;;;;;;;16.88;98.48;101399.88;5061922;28;20025;-65
2023/10/11 10:54:04;;;;;;;36.67;22.35;;;;;;;16.89;98.62;101415.75;5065703;28;20045;-65
2023/10/11 10:56:29;;;;;;;36.50;22.27;;;;;;;16.90;98.42;101398.63;5063689;28;20021;-65
2023/10/11 10:59:08;;;;;;;35.17;21.27;;;;;;;16.91;98.78;101411.03;5058486;28;20512;-66
2023/10/11 11:01:34;;;;;;;38.25;22.10;;;;;;;16.90;98.40;101404.00;5060623;28;20024;-66
2023/10/11 11:04:06;;;;;;;37.35;21.13;;;;;;;16.90;98.76;101403.19;5060688;28;20021;-65
2023/10/11 11:06:39;;;;;;;37.30;21.88;;;;;;;16.87;98.83;101379.44;5064974;28;20043;-65
2023/10/11 11:09:13;;;;;;;36.08;21.88;;;;;;;16.91;99.06;101388.72;5061323;28;20020;-65
2023/10/11 11:11:38;;;;;;;34.50;21.50;;;;;;;16.92;99.08;101390.38;5058333;28;20475;-65
2023/10/11 11:14:14;;;;;;;37.55;22.23;;;;;;;16.95;99.63;101373.88;5059399;28;20029;-66
2023/10/11 11:16:41;;;;;;;39.15;22.65;;;;;;;16.95;99.28;101380.09;5061335;28;20024;-65
2023/10/11 11:19:10;;;;;;;45.85;23.55;;;;;;;16.96;99.65;101397.00;5061072;28;20036;-65
2023/10/11 11:21:44;;;;;;;34.47;22.30;;;;;;;16.96;99.96;101392.47;5060653;28;20486;-65
2023/10/11 11:24:18;;;;;;;39.15;23.52;;;;;;;16.96;99.98;101386.28;5063612;28;20036;-65
2023/10/11 11:26:45;;;;;;;40.67;24.00;;;;;;;16.94;100.00;101366.88;5070929;28;20482;-65
2023/10/11 11:29:16;;;;;;;37.33;24.65;;;;;;;16.91;100.00;101343.13;5068911;28;20036;-65
2023/10/11 11:31:51;;;;;;;44.00;26.27;;;;;;;16.94;99.91;101353.44;5056713;28;20569;-65
2023/10/11 11:34:26;;;;;;;45.85;26.77;;;;;;;16.90;99.83;101344.16;5061519;28;20059;-65
2023/10/11 11:36:56;;;;;;;47.08;27.95;;;;;;;16.89;99.83;101350.53;5068533;28;20582;-65
2023/10/11 11:39:36;;;;;;;42.25;28.25;;;;;;;16.88;100.00;101352.41;5063688;28;20021;-65
2023/10/11 11:42:24;;;;;;;42.40;27.45;;;;;;;16.91;100.00;101354.69;5068273;28;20521;-65
2023/10/11 11:44:50;;;;;;;43.30;27.40;;;;;;;16.93;100.00;101344.56;5057713;28;20044;-65
2023/10/11 11:47:22;;;;;;;43.13;27.50;;;;;;;16.94;100.00;101330.13;5067678;28;20028;-65
2023/10/11 11:49:47;;;;;;;43.42;27.13;;;;;;;16.97;100.00;101331.59;5057373;28;20088;-65
2023/10/11 11:52:16;;;;;;;46.65;27.60;;;;;;;16.99;100.00;101314.25;5065258;28;20021;-65
2023/10/11 11:54:43;;;;;;;;;;;;;;;17.02;100.00;101297.75;5057563;28;20025;-65
2023/10/11 11:57:09;;;;;;;46.22;27.52;;;;;;;17.07;100.00;101291.81;5067953;28;19908;-65
2023/10/11 11:59:34;;;;;;;41.72;27.13;;;;;;;17.14;100.00;101305.22;5070113;28;20383;-65
2023/10/11 12:01:59;;;;;;;44.72;26.75;;;;;;;17.19;100.00;101305.44;5062926;28;20048;-65
2023/10/11 12:04:29;;;;;;;41.40;25.30;;;;;;;17.18;99.78;101301.13;5067357;28;20031;-65
2023/10/11 12:07:09;;;;;;;41.15;26.33;;;;;;;17.16;99.66;101311.22;5065832;28;20028;-65
2023/10/11 12:09:35;;;;;;;37.15;25.77;;;;;;;17.16;99.68;101303.19;5063840;28;20460;-65
2023/10/11 12:12:03;;;;;;;41.45;24.58;;;;;;;17.12;99.99;101302.75;5063488;28;20536;-65
2023/10/11 12:14:29;;;;;;;38.45;24.70;;;;;;;17.14;99.92;101300.69;5068153;28;20025;-65
2023/10/11 12:16:55;;;;;;;40.33;24.42;;;;;;;17.19;99.88;101303.59;5066476;28;20040;-65